Time;durP1;ratioP1;P1;durP2;ratioP2;P2;SDS_P1;SDS_P2;PMS_P1;PMS_P2;Temp;Humidity;BMP_temperature;BMP_pressure;BME280_temperature;BME280_humidity;BME280_pressure;Samples;Min_cycle;Max_cycle;Signal;HPM_P1;HPM_P2
2022/01/24 00:01:44;;;;;;;16.63;7.43;;;4.90;96.40;;;;;;4987763;28;20057;-71
2022/01/24 00:04:09;;;;;;;16.00;8.25;;;4.90;96.40;;;;;;4986345;28;20092;-71
2022/01/24 00:06:35;;;;;;;12.75;7.55;;;4.90;96.50;;;;;;4990264;28;20026;-71
2022/01/24 00:09:03;;;;;;;17.63;8.63;;;4.90;96.40;;;;;;4991171;28;20114;-71
2022/01/24 00:11:40;;;;;;;16.50;7.97;;;4.90;96.40;;;;;;4990648;28;20044;-71
2022/01/24 00:14:48;;;;;;;13.45;7.97;;;4.90;96.50;;;;;;4992529;28;20037;-71
2022/01/24 00:27:22;;;;;;;12.70;7.55;;;4.80;96.50;;;;;;4989936;28;20049;-71
2022/01/24 00:29:48;;;;;;;17.75;8.38;;;4.80;96.60;;;;;;4992859;28;20274;-71
2022/01/24 00:32:14;;;;;;;14.77;8.35;;;4.80;96.60;;;;;;4993672;28;20026;-71
2022/01/24 00:34:39;;;;;;;14.45;8.27;;;4.80;96.70;;;;;;4991191;28;20064;-71
2022/01/24 00:37:05;;;;;;;14.52;8.00;;;4.80;96.70;;;;;;4990589;28;20034;-71
2022/01/24 00:39:31;;;;;;;17.80;8.90;;;4.80;96.70;;;;;;4992054;28;20035;-71
2022/01/24 00:46:58;;;;;;;17.05;9.32;;;4.70;96.70;;;;;;4994415;28;20030;-71
2022/01/24 00:54:52;;;;;;;14.70;9.27;;;4.70;96.00;;;;;;4993050;28;20046;-71
2022/01/24 00:57:19;;;;;;;14.57;9.18;;;4.70;95.70;;;;;;4992449;28;20361;-71
2022/01/24 00:59:46;;;;;;;18.23;9.55;;;4.80;95.60;;;;;;4989002;28;20023;-72
2022/01/24 01:02:12;;;;;;;13.40;8.65;;;4.70;95.40;;;;;;4985430;28;20113;-71
2022/01/24 01:07:12;;;;;;;14.65;9.18;;;4.70;94.90;;;;;;4991076;28;20026;-71
2022/01/24 01:21:00;;;;;;;12.80;8.27;;;4.70;94.40;;;;;;4985885;28;20114;-72
2022/01/24 01:23:24;;;;;;;13.50;8.13;;;4.70;94.10;;;;;;4989177;28;20133;-72
2022/01/24 01:25:51;;;;;;;11.48;8.27;;;4.70;93.80;;;;;;4984676;28;20093;-72
2022/01/24 01:28:18;;;;;;;12.35;8.55;;;4.70;93.90;;;;;;4989515;28;20034;-72
2022/01/24 01:30:49;;;;;;;13.18;8.85;;;4.70;93.70;;;;;;4986204;28;20026;-72
2022/01/24 01:33:32;;;;;;;12.68;8.52;;;4.70;93.40;;;;;;4990724;28;20485;-72
2022/01/24 01:39:30;;;;;;;13.82;8.40;;;4.70;93.40;;;;;;4985169;28;20466;-72
2022/01/24 01:55:44;;;;;;;13.70;9.68;;;4.60;93.60;;;;;;4989712;28;20561;-72
2022/01/24 01:58:15;;;;;;;15.27;9.50;;;4.60;93.70;;;;;;4991179;28;20038;-72
2022/01/24 02:00:42;;;;;;;;;;;4.70;93.80;;;;;;4985951;28;20146;-72
2022/01/24 02:03:08;;;;;;;15.07;9.45;;;4.60;94.00;;;;;;4990937;28;19909;-72
2022/01/24 02:05:35;;;;;;;16.52;9.63;;;4.60;93.90;;;;;;4988832;28;20037;-72
2022/01/24 02:08:00;;;;;;;19.23;10.50;;;4.60;93.90;;;;;;4991609;28;20030;-72
2022/01/24 02:10:26;;;;;;;16.15;10.95;;;4.60;93.10;;;;;;4985331;28;20374;-72
2022/01/24 02:12:54;;;;;;;17.60;10.30;;;4.70;92.80;;;;;;4987069;28;20054;-72
2022/01/24 02:18:29;;;;;;;16.02;10.35;;;4.60;92.90;;;;;;4986511;28;21099;-72
2022/01/24 02:21:11;;;;;;;15.48;10.10;;;4.60;93.20;;;;;;4988397;28;20030;-72
2022/01/24 02:23:48;;;;;;;21.75;12.45;;;4.60;93.10;;;;;;4991493;28;20054;-72
2022/01/24 02:26:19;;;;;;;18.23;11.02;;;4.70;92.50;;;;;;4985906;28;20034;-72
2022/01/24 02:31:41;;;;;;;17.48;11.27;;;4.70;92.40;;;;;;4984464;28;20037;-72
2022/01/24 02:34:28;;;;;;;16.45;10.55;;;4.60;92.30;;;;;;4989527;28;20041;-72
2022/01/24 02:36:58;;;;;;;16.98;9.75;;;4.70;92.00;;;;;;4986050;28;20480;-72
2022/01/24 02:50:38;;;;;;;18.00;11.98;;;4.60;92.30;;;;;;4986367;28;20038;-72
2022/01/24 02:53:04;;;;;;;22.60;12.50;;;4.60;92.20;;;;;;4986333;28;20026;-72
2022/01/24 02:55:30;;;;;;;22.95;13.77;;;4.60;92.20;;;;;;4987010;28;20108;-72
2022/01/24 02:57:55;;;;;;;23.90;13.45;;;4.60;92.20;;;;;;4992857;28;20046;-72
2022/01/24 03:00:21;;;;;;;28.45;15.38;;;4.60;92.30;;;;;;4987064;28;20115;-72
2022/01/24 03:02:46;;;;;;;24.98;14.40;;;4.60;92.60;;;;;;4986900;28;20089;-72
2022/01/24 03:05:12;;;;;;;24.40;15.25;;;4.60;92.70;;;;;;4989343;28;20018;-72
2022/01/24 03:07:37;;;;;;;22.63;13.00;;;4.60;92.40;;;;;;4989548;28;20092;-72
2022/01/24 03:10:12;;;;;;;21.88;12.90;;;4.60;92.50;;;;;;4986852;28;20022;-72
2022/01/24 03:12:42;;;;;;;24.35;12.65;;;4.60;92.20;;;;;;4990166;28;20010;-72
2022/01/24 03:15:09;;;;;;;18.02;11.32;;;4.50;92.30;;;;;;4985318;28;20074;-72
2022/01/24 03:17:34;;;;;;;19.25;12.65;;;4.60;92.20;;;;;;4987074;28;20026;-72
2022/01/24 03:20:00;;;;;;;16.38;11.20;;;4.60;92.30;;;;;;4989801;28;20105;-72
2022/01/24 03:22:25;;;;;;;19.00;12.20;;;4.60;92.60;;;;;;4989455;28;20362;-72
2022/01/24 03:24:51;;;;;;;21.67;12.50;;;4.50;92.90;;;;;;4990118;28;20109;-72
2022/01/24 03:27:16;;;;;;;22.17;13.27;;;4.50;93.00;;;;;;4988377;28;20363;-72
2022/01/24 03:29:42;;;;;;;20.65;12.95;;;4.50;93.10;;;;;;4987504;28;20117;-72
2022/01/24 03:32:08;;;;;;;19.35;13.18;;;4.50;93.30;;;;;;4976031;28;20081;-72
2022/01/24 03:34:33;;;;;;;22.30;13.40;;;4.40;93.40;;;;;;4984402;28;20100;-72
2022/01/24 03:36:59;;;;;;;24.70;14.57;;;4.40;93.50;;;;;;4985371;28;20038;-72
2022/01/24 03:39:24;;;;;;;20.83;13.57;;;4.40;93.50;;;;;;4987573;28;20019;-72
2022/01/24 03:41:50;;;;;;;20.70;13.32;;;4.40;93.40;;;;;;4988793;28;20061;-72
2022/01/24 03:44:17;;;;;;;24.95;15.45;;;4.50;93.30;;;;;;4989771;28;20486;-72
2022/01/24 03:52:08;;;;;;;22.65;13.85;;;4.40;92.60;;;;;;4987267;28;20540;-72
2022/01/24 03:54:34;;;;;;;22.40;14.13;;;4.50;92.40;;;;;;4988793;28;20023;-72
2022/01/24 03:57:00;;;;;;;21.10;13.57;;;4.40;92.60;;;;;;4988635;28;20585;-72
2022/01/24 03:59:25;;;;;;;23.85;14.82;;;4.40;92.70;;;;;;4988787;28;20034;-72
2022/01/24 04:01:51;;;;;;;25.10;13.55;;;4.40;92.60;;;;;;4979626;28;20030;-72
2022/01/24 04:04:16;;;;;;;26.88;15.93;;;4.40;92.60;;;;;;4987930;28;20026;-72
2022/01/24 04:06:42;;;;;;;25.67;15.57;;;4.40;92.40;;;;;;4987029;28;20462;-72
2022/01/24 04:09:08;;;;;;;24.15;14.82;;;4.40;92.30;;;;;;4989464;28;20034;-72
2022/01/24 04:11:37;;;;;;;23.75;14.70;;;4.40;92.50;;;;;;4984648;28;20030;-72
2022/01/24 04:14:23;;;;;;;21.75;14.02;;;4.40;92.70;;;;;;4988703;28;20125;-72
2022/01/24 04:17:20;;;;;;;23.27;14.10;;;4.40;92.90;;;;;;4983951;28;20030;-72
2022/01/24 04:22:33;;;;;;;21.77;14.25;;;4.30;93.20;;;;;;4988070;28;20053;-72
2022/01/24 04:25:01;;;;;;;25.73;15.88;;;4.30;93.20;;;;;;4989225;28;20041;-72
2022/01/24 04:27:29;;;;;;;25.58;17.20;;;4.30;93.00;;;;;;4987316;28;20089;-72
2022/01/24 04:29:55;;;;;;;25.80;16.13;;;4.30;93.00;;;;;;4983996;28;20544;-72
2022/01/24 04:32:21;;;;;;;27.92;16.88;;;4.40;92.90;;;;;;4979956;28;20073;-72
2022/01/24 04:34:47;;;;;;;27.33;17.58;;;4.40;92.90;;;;;;4988445;28;20061;-72
2022/01/24 04:37:13;;;;;;;28.50;17.65;;;4.30;93.20;;;;;;4987111;28;20488;-72
2022/01/24 04:39:38;;;;;;;29.48;17.55;;;4.30;93.20;;;;;;4988964;28;20034;-72
2022/01/24 04:42:12;;;;;;;29.27;17.25;;;4.30;93.30;;;;;;4988150;28;20027;-72
2022/01/24 04:47:26;;;;;;;29.38;17.08;;;4.30;93.10;;;;;;4985308;28;20030;-72
2022/01/24 04:55:13;;;;;;;24.45;15.57;;;4.30;93.20;;;;;;4990525;28;20370;-72
2022/01/24 04:57:38;;;;;;;23.05;15.07;;;4.30;93.20;;;;;;4986159;28;20038;-72
2022/01/24 05:00:08;;;;;;;26.52;16.20;;;4.30;93.10;;;;;;4989146;28;20034;-72
2022/01/24 05:02:33;;;;;;;27.30;15.88;;;4.30;93.20;;;;;;4990874;28;20022;-72
2022/01/24 05:05:00;;;;;;;25.25;16.10;;;4.30;93.20;;;;;;4987519;28;20039;-72
2022/01/24 05:07:26;;;;;;;27.27;16.33;;;4.20;93.10;;;;;;4981150;28;20272;-72
2022/01/24 05:10:00;;;;;;;28.70;16.90;;;4.20;93.00;;;;;;4984827;28;20438;-72
2022/01/24 05:23:34;;;;;;;24.13;15.13;;;4.20;92.80;;;;;;4982857;28;20065;-71
2022/01/24 05:26:02;;;;;;;26.75;15.30;;;4.20;92.70;;;;;;4985685;28;20081;-71
2022/01/24 05:28:29;;;;;;;28.08;15.05;;;4.30;92.40;;;;;;4990652;28;20038;-73
2022/01/24 05:30:54;;;;;;;22.77;15.40;;;4.30;92.30;;;;;;4982481;28;20046;-74
2022/01/24 05:33:20;;;;;;;28.95;15.85;;;4.30;92.40;;;;;;4991686;28;20065;-74
2022/01/24 05:35:46;;;;;;;26.00;15.73;;;4.20;92.40;;;;;;4986726;28;20077;-74
2022/01/24 05:38:11;;;;;;;25.90;15.63;;;4.30;92.20;;;;;;4986135;28;20041;-74
2022/01/24 05:40:37;;;;;;;25.02;14.25;;;4.30;91.70;;;;;;4986408;28;20501;-74
2022/01/24 05:43:03;;;;;;;24.40;14.63;;;4.30;91.70;;;;;;4988710;28;20042;-74
2022/01/24 05:45:29;;;;;;;23.95;14.95;;;4.30;92.00;;;;;;4989480;28;20125;-74
2022/01/24 05:47:55;;;;;;;25.77;14.40;;;4.30;92.10;;;;;;4988726;28;20511;-74
2022/01/24 05:50:20;;;;;;;25.30;15.35;;;4.20;92.20;;;;;;4982881;28;20374;-74
2022/01/24 05:52:46;;;;;;;25.73;14.77;;;4.20;92.30;;;;;;4988294;28;20026;-74
2022/01/24 05:55:12;;;;;;;23.83;15.30;;;4.20;92.50;;;;;;4991213;28;20034;-74
2022/01/24 05:57:37;;;;;;;23.05;14.32;;;4.20;92.70;;;;;;4984757;28;20069;-74
2022/01/24 06:00:08;;;;;;;21.38;13.43;;;4.30;92.50;;;;;;4985138;28;20046;-74
2022/01/24 06:02:34;;;;;;;19.95;13.75;;;4.30;92.10;;;;;;4989609;28;20458;-74
2022/01/24 06:04:59;;;;;;;22.67;14.10;;;4.30;92.10;;;;;;4986251;28;20026;-74
2022/01/24 06:07:25;;;;;;;24.80;14.65;;;4.30;92.20;;;;;;4978842;28;20030;-74
2022/01/24 06:09:50;;;;;;;21.20;14.18;;;4.30;92.30;;;;;;4986587;28;20093;-74
2022/01/24 06:12:16;;;;;;;24.70;14.25;;;4.30;92.30;;;;;;4986124;28;20029;-74
2022/01/24 06:14:41;;;;;;;23.02;14.63;;;4.30;92.20;;;;;;4984685;28;20058;-74
2022/01/24 06:17:08;;;;;;;21.27;14.13;;;4.30;92.00;;;;;;4977447;28;20113;-74
2022/01/24 06:19:33;;;;;;;23.95;15.05;;;4.30;91.90;;;;;;4990453;28;20406;-74
2022/01/24 06:21:59;;;;;;;22.85;15.18;;;4.30;92.10;;;;;;4986290;28;20030;-74
2022/01/24 06:24:24;;;;;;;23.83;14.60;;;4.30;92.30;;;;;;4984911;28;20049;-74
2022/01/24 06:26:50;;;;;;;23.88;14.05;;;4.30;92.40;;;;;;4984814;28;20038;-74
2022/01/24 06:29:15;;;;;;;26.23;15.07;;;4.30;92.50;;;;;;4988649;28;20037;-74
2022/01/24 06:31:41;;;;;;;22.65;14.43;;;4.20;92.50;;;;;;4983818;28;20039;-75
2022/01/24 06:34:06;;;;;;;23.15;15.18;;;4.20;92.60;;;;;;4987498;28;20041;-74
2022/01/24 06:36:32;;;;;;;25.50;15.45;;;4.20;92.50;;;;;;4976710;28;20444;-74
2022/01/24 06:39:00;;;;;;;26.13;14.65;;;4.30;92.40;;;;;;4986543;28;20053;-74
2022/01/24 06:41:31;;;;;;;25.33;15.35;;;4.30;92.10;;;;;;4980476;28;20463;-72
2022/01/24 06:43:56;;;;;;;;;;;4.30;92.10;;;;;;4985323;28;20033;-74
2022/01/24 06:46:23;;;;;;;25.45;15.40;;;4.30;92.30;;;;;;4987330;28;20281;-74
2022/01/24 06:48:48;;;;;;;22.77;14.32;;;4.30;92.40;;;;;;4989144;28;20152;-76
2022/01/24 06:51:14;;;;;;;23.38;15.88;;;4.30;92.50;;;;;;4987948;28;20109;-74
2022/01/24 06:53:41;;;;;;;25.27;15.35;;;4.30;92.80;;;;;;4987762;28;20022;-74
2022/01/24 06:56:07;;;;;;;24.15;15.50;;;4.30;92.70;;;;;;4984445;28;20031;-74
2022/01/24 06:58:34;;;;;;;25.30;15.70;;;4.30;92.80;;;;;;4989505;28;20369;-73
2022/01/24 07:00:59;;;;;;;28.02;17.30;;;4.30;92.70;;;;;;4987348;28;20042;-74
2022/01/24 07:03:25;;;;;;;26.77;16.05;;;4.30;92.80;;;;;;4990275;28;20152;-74
2022/01/24 07:05:50;;;;;;;28.00;17.02;;;4.30;92.80;;;;;;4983361;28;20057;-74
2022/01/24 07:08:16;;;;;;;30.77;16.92;;;4.30;92.60;;;;;;4984445;28;20030;-74
2022/01/24 07:10:41;;;;;;;25.23;15.82;;;4.30;92.50;;;;;;4985689;28;20036;-74
2022/01/24 07:13:07;;;;;;;26.55;15.68;;;4.40;91.30;;;;;;4982290;28;20031;-74
2022/01/24 07:15:37;;;;;;;24.02;16.35;;;4.40;91.40;;;;;;4986827;28;20042;-74
2022/01/24 07:20:35;;;;;;;26.90;15.50;;;4.40;91.50;;;;;;4986724;28;20042;-74
2022/01/24 07:23:05;;;;;;;21.27;14.75;;;4.40;91.80;;;;;;4987953;28;20022;-74
2022/01/24 07:25:30;;;;;;;26.48;16.83;;;4.30;92.20;;;;;;4983594;28;20035;-74
2022/01/24 07:27:56;;;;;;;26.48;16.67;;;4.30;92.30;;;;;;4977185;28;20258;-74
2022/01/24 07:30:21;;;;;;;27.05;16.30;;;4.30;92.20;;;;;;4986252;28;20038;-74
2022/01/24 07:32:47;;;;;;;28.27;16.70;;;4.30;92.20;;;;;;4989721;28;20470;-74
2022/01/24 07:35:13;;;;;;;25.45;15.82;;;4.30;92.20;;;;;;4988891;28;20030;-74
2022/01/24 07:37:38;;;;;;;29.00;17.13;;;4.30;92.20;;;;;;4988134;28;20121;-74
2022/01/24 07:40:07;;;;;;;27.67;16.92;;;4.30;92.20;;;;;;4984272;28;20038;-74
2022/01/24 07:45:17;;;;;;;26.20;16.65;;;4.40;92.10;;;;;;4983412;28;20030;-74
2022/01/24 07:47:42;;;;;;;26.63;16.98;;;4.30;92.10;;;;;;4987600;28;20019;-72
2022/01/24 07:50:08;;;;;;;27.73;18.33;;;4.30;92.20;;;;;;4983371;28;20444;-74
2022/01/24 07:52:35;;;;;;;25.40;16.33;;;4.30;92.40;;;;;;4987838;28;20492;-74
2022/01/24 07:55:00;;;;;;;27.80;17.75;;;4.30;92.60;;;;;;4977910;28;20553;-74
2022/01/24 07:57:26;;;;;;;25.52;17.15;;;4.30;92.60;;;;;;4989306;28;20121;-73
2022/01/24 07:59:51;;;;;;;30.17;17.15;;;4.30;92.40;;;;;;4986493;28;20049;-73
2022/01/24 08:02:17;;;;;;;25.27;17.20;;;4.40;91.70;;;;;;4987962;28;20034;-73
2022/01/24 08:04:42;;;;;;;28.35;16.10;;;4.40;91.80;;;;;;4989803;28;20392;-73
2022/01/24 08:07:07;;;;;;;27.77;16.75;;;4.40;91.90;;;;;;4988534;28;20030;-73
2022/01/24 08:09:33;;;;;;;23.75;15.77;;;4.40;91.90;;;;;;4988934;28;20030;-74
2022/01/24 08:11:58;;;;;;;26.42;16.55;;;4.40;92.10;;;;;;4987102;28;20089;-74
2022/01/24 08:14:24;;;;;;;28.27;17.95;;;4.40;92.20;;;;;;4986306;28;20535;-74
2022/01/24 08:16:49;;;;;;;28.95;17.95;;;4.40;92.20;;;;;;4985913;28;20512;-73
2022/01/24 08:19:15;;;;;;;27.17;17.70;;;4.40;92.10;;;;;;4988844;28;20043;-74
2022/01/24 08:21:43;;;;;;;24.65;16.35;;;4.40;92.00;;;;;;4979980;28;20042;-74
2022/01/24 08:24:08;;;;;;;23.67;15.15;;;4.40;92.00;;;;;;4987072;28;20026;-74
2022/01/24 08:26:35;;;;;;;25.88;16.73;;;4.40;92.00;;;;;;4983660;28;20109;-74
2022/01/24 08:29:00;;;;;;;24.90;15.43;;;4.40;92.10;;;;;;4986026;28;20067;-74
2022/01/24 08:31:26;;;;;;;24.63;16.08;;;4.40;92.20;;;;;;4988245;28;20136;-74
2022/01/24 08:33:51;;;;;;;22.20;15.77;;;4.40;92.30;;;;;;4991631;28;20030;-74
2022/01/24 08:36:17;;;;;;;26.00;15.63;;;4.40;92.30;;;;;;4991263;28;20390;-74
2022/01/24 08:38:46;;;;;;;25.70;15.63;;;4.40;92.20;;;;;;4988676;28;20033;-74
2022/01/24 08:41:19;;;;;;;24.17;15.20;;;4.40;92.20;;;;;;4985369;28;20524;-74
2022/01/24 08:46:13;;;;;;;24.98;15.95;;;4.50;92.00;;;;;;4989648;28;20581;-75
2022/01/24 08:48:39;;;;;;;23.55;15.57;;;4.50;91.80;;;;;;4982974;28;20058;-75
2022/01/24 08:51:05;;;;;;;26.40;14.68;;;4.50;91.80;;;;;;4992752;28;20027;-75
2022/01/24 08:53:33;;;;;;;23.85;15.07;;;4.50;91.90;;;;;;4985487;28;20030;-75
2022/01/24 08:56:01;;;;;;;24.63;14.52;;;4.50;92.20;;;;;;4985439;28;20221;-75
2022/01/24 08:58:27;;;;;;;24.15;14.57;;;4.50;92.20;;;;;;4984011;28;20026;-75
2022/01/24 09:00:52;;;;;;;19.45;13.80;;;4.50;92.10;;;;;;4988244;28;20028;-74
2022/01/24 09:03:18;;;;;;;19.25;13.15;;;4.60;91.70;;;;;;4991643;28;20069;-77
2022/01/24 09:05:45;;;;;;;19.63;13.23;;;4.60;91.30;;;;;;4991455;28;20030;-77
2022/01/24 09:08:11;;;;;;;23.05;13.63;;;4.60;91.20;;;;;;4982418;28;20478;-76
2022/01/24 09:10:39;;;;;;;20.55;13.65;;;4.60;91.20;;;;;;4991957;28;20026;-76
2022/01/24 09:13:05;;;;;;;19.77;13.98;;;4.60;91.20;;;;;;4987190;28;20057;-77
2022/01/24 09:15:31;;;;;;;17.85;12.95;;;4.60;91.20;;;;;;4987788;28;20082;-77
2022/01/24 09:17:56;;;;;;;20.75;13.65;;;4.60;91.40;;;;;;4991994;28;20066;-77
2022/01/24 09:20:22;;;;;;;22.85;13.32;;;4.60;91.70;;;;;;4990445;28;20030;-77
2022/01/24 09:22:49;;;;;;;21.50;13.40;;;4.60;91.60;;;;;;4981576;28;20089;-77
2022/01/24 09:25:16;;;;;;;21.77;12.65;;;4.60;91.50;;;;;;4988914;28;20026;-77
2022/01/24 09:27:44;;;;;;;24.85;14.10;;;4.60;91.20;;;;;;4991243;28;20351;-77
2022/01/24 09:30:13;;;;;;;20.20;12.73;;;4.60;91.00;;;;;;4990703;28;20409;-77
2022/01/24 09:32:39;;;;;;;19.05;12.55;;;4.70;90.80;;;;;;4987801;28;20084;-77
2022/01/24 09:35:06;;;;;;;20.08;12.80;;;4.70;90.80;;;;;;4990288;28;20546;-77
2022/01/24 09:37:32;;;;;;;21.23;13.43;;;4.70;90.90;;;;;;4989212;28;20388;-77
2022/01/24 09:39:58;;;;;;;17.70;12.32;;;4.70;91.00;;;;;;4988262;28;20034;-77
2022/01/24 09:42:23;;;;;;;20.63;12.95;;;4.70;90.90;;;;;;4988022;28;20031;-77
2022/01/24 09:44:49;;;;;;;20.75;12.77;;;4.70;91.00;;;;;;4989668;28;20035;-77
2022/01/24 09:47:16;;;;;;;20.17;13.25;;;4.70;91.10;;;;;;4990514;28;20030;-77
2022/01/24 09:49:45;;;;;;;19.80;12.43;;;4.70;90.90;;;;;;4989916;28;20038;-77
2022/01/24 09:52:10;;;;;;;18.40;12.00;;;4.70;91.10;;;;;;4986258;28;20363;-77
2022/01/24 09:54:36;;;;;;;19.83;12.35;;;4.70;91.10;;;;;;4989773;28;20033;-77
2022/01/24 09:57:02;;;;;;;16.45;12.07;;;4.80;91.20;;;;;;4983805;28;20042;-77
2022/01/24 09:59:28;;;;;;;20.05;12.38;;;4.80;91.20;;;;;;4991302;28;20038;-78
2022/01/24 10:01:54;;;;;;;19.75;12.57;;;4.70;91.30;;;;;;4987153;28;20361;-77
2022/01/24 10:04:25;;;;;;;18.85;12.82;;;4.80;91.40;;;;;;4991235;28;20019;-77
2022/01/24 10:07:13;;;;;;;21.35;13.05;;;4.70;91.10;;;;;;4987764;28;20030;-77
2022/01/24 10:09:44;;;;;;;19.02;12.07;;;4.70;91.10;;;;;;4989471;28;20481;-77
2022/01/24 10:12:17;;;;;;;19.10;12.32;;;4.80;91.20;;;;;;4982950;28;20073;-78
2022/01/24 10:17:33;;;;;;;18.95;12.30;;;4.80;91.00;;;;;;4983720;28;20030;-75
2022/01/24 10:20:15;;;;;;;19.00;12.35;;;4.80;91.00;;;;;;4984525;28;20435;-75
2022/01/24 10:22:41;;;;;;;17.42;11.95;;;4.80;91.30;;;;;;4985828;28;20462;-75
2022/01/24 10:25:09;;;;;;;20.50;13.10;;;4.80;91.20;;;;;;4987618;28;20030;-75
2022/01/24 10:27:35;;;;;;;22.48;13.70;;;4.80;90.90;;;;;;4983998;28;20030;-75
2022/01/24 10:30:03;;;;;;;22.95;12.90;;;4.80;91.00;;;;;;4988225;28;20026;-76
2022/01/24 10:32:29;;;;;;;17.92;12.43;;;4.80;91.10;;;;;;4992176;28;20034;-75
2022/01/24 10:34:55;;;;;;;18.42;12.45;;;4.80;91.20;;;;;;4982711;28;20401;-75
2022/01/24 10:37:23;;;;;;;17.95;12.68;;;4.80;90.90;;;;;;4985114;28;20042;-75
2022/01/24 10:39:58;;;;;;;20.52;12.85;;;4.80;90.90;;;;;;4990539;28;20113;-75
2022/01/24 10:45:01;;;;;;;18.95;12.40;;;4.80;91.00;;;;;;4989474;28;20027;-76
2022/01/24 10:47:33;;;;;;;20.90;13.38;;;4.80;91.10;;;;;;4984382;28;20393;-76
2022/01/24 10:50:05;;;;;;;23.50;13.88;;;4.80;91.00;;;;;;4981161;28;20030;-76
2022/01/24 10:52:33;;;;;;;19.42;13.20;;;4.80;90.50;;;;;;4990421;28;20026;-77
2022/01/24 10:55:13;;;;;;;17.42;12.52;;;4.90;90.30;;;;;;4984494;28;20073;-76
2022/01/24 10:57:41;;;;;;;19.58;12.57;;;4.90;90.50;;;;;;4987434;28;20066;-76
2022/01/24 11:00:09;;;;;;;24.52;13.13;;;4.80;91.00;;;;;;4989518;28;20053;-75
2022/01/24 11:02:35;;;;;;;18.52;12.10;;;4.80;90.90;;;;;;4980613;28;20034;-75
2022/01/24 11:05:12;;;;;;;16.00;11.75;;;4.80;90.80;;;;;;4987159;28;20065;-75
2022/01/24 11:07:56;;;;;;;18.50;12.10;;;4.80;90.60;;;;;;4987935;28;20042;-76
2022/01/24 11:10:24;;;;;;;21.13;12.18;;;4.80;90.50;;;;;;4986993;28;20109;-76
2022/01/24 11:12:50;;;;;;;20.63;12.65;;;4.80;90.30;;;;;;4984992;28;20069;-75
2022/01/24 11:15:15;;;;;;;18.27;11.63;;;4.80;90.60;;;;;;4983749;28;20057;-77
2022/01/24 11:17:43;;;;;;;18.05;12.07;;;4.80;90.90;;;;;;4982722;28;20026;-75
2022/01/24 11:20:14;;;;;;;19.13;11.55;;;4.90;90.70;;;;;;4986051;28;20540;-75
2022/01/24 11:22:44;;;;;;;21.00;12.50;;;4.90;90.70;;;;;;4989453;28;20113;-76
2022/01/24 11:25:12;;;;;;;20.25;12.15;;;4.90;91.00;;;;;;4984789;28;20458;-75
2022/01/24 11:27:40;;;;;;;20.23;12.75;;;4.90;91.00;;;;;;4984529;28;20041;-75
2022/01/24 11:30:10;;;;;;;16.85;12.13;;;4.90;90.70;;;;;;4981958;28;20458;-75
2022/01/24 11:32:58;;;;;;;19.80;13.25;;;4.90;90.40;;;;;;4981980;28;20062;-75
2022/01/24 11:35:35;;;;;;;18.77;11.90;;;4.90;89.50;;;;;;4986548;28;20038;-75
2022/01/24 11:38:02;;;;;;;18.75;11.90;;;4.90;89.70;;;;;;4987263;28;20034;-75
2022/01/24 11:40:44;;;;;;;23.17;12.40;;;4.90;89.50;;;;;;4987219;28;20042;-75
2022/01/24 11:43:32;;;;;;;19.35;12.30;;;4.90;89.80;;;;;;4989318;28;20037;-74
2022/01/24 11:46:05;;;;;;;17.88;11.77;;;4.90;89.80;;;;;;4984385;28;20034;-75
2022/01/24 11:48:33;;;;;;;19.15;11.65;;;5.00;88.60;;;;;;4989984;28;20445;-74
2022/01/24 11:51:06;;;;;;;18.52;12.23;;;4.90;88.70;;;;;;4992596;28;20034;-74
2022/01/24 11:53:36;;;;;;;18.88;11.05;;;4.90;89.00;;;;;;4979908;28;20018;-76
2022/01/24 11:56:24;;;;;;;18.85;12.27;;;4.90;88.90;;;;;;4979103;28;20022;-75
2022/01/24 11:58:51;;;;;;;22.13;12.93;;;4.90;88.70;;;;;;4988800;28;20351;-75
2022/01/24 12:01:38;;;;;;;21.85;12.65;;;4.90;88.80;;;;;;4979649;28;20113;-75
2022/01/24 12:04:04;;;;;;;20.23;12.35;;;4.90;89.00;;;;;;4981651;28;20451;-75
2022/01/24 12:06:30;;;;;;;18.83;12.35;;;4.90;89.10;;;;;;4991704;28;20038;-75
2022/01/24 12:09:05;;;;;;;22.08;12.48;;;4.90;89.10;;;;;;4991131;28;20404;-75
2022/01/24 12:11:34;;;;;;;20.77;12.85;;;4.90;89.60;;;;;;4987830;28;20034;-76
2022/01/24 12:14:13;;;;;;;19.55;12.82;;;4.90;89.50;;;;;;4992138;28;20022;-75
2022/01/24 12:16:44;;;;;;;19.55;12.25;;;4.90;89.90;;;;;;4982357;28;20493;-76
2022/01/24 12:19:11;;;;;;;22.55;14.18;;;4.90;89.90;;;;;;4990182;28;20069;-75
2022/01/24 12:21:41;;;;;;;22.10;12.63;;;4.90;89.50;;;;;;4987361;28;20030;-75
2022/01/24 12:24:08;;;;;;;20.05;12.43;;;4.90;89.60;;;;;;4984793;28;20440;-75
2022/01/24 12:27:04;;;;;;;18.52;11.95;;;4.90;88.80;;;;;;4988535;28;20031;-75
2022/01/24 12:29:31;;;;;;;19.75;11.85;;;5.00;89.00;;;;;;4990914;28;20480;-75
2022/01/24 12:31:59;;;;;;;21.30;12.32;;;4.90;89.20;;;;;;4989019;28;20029;-75
2022/01/24 12:34:38;;;;;;;20.13;12.43;;;4.90;89.30;;;;;;4989743;28;20384;-75
2022/01/24 12:37:08;;;;;;;20.95;13.70;;;5.00;89.60;;;;;;4989897;28;20064;-75
2022/01/24 12:39:43;;;;;;;19.75;12.23;;;5.00;89.90;;;;;;4986966;28;20054;-76
2022/01/24 12:42:19;;;;;;;19.70;12.50;;;5.00;89.80;;;;;;4989652;28;20045;-75
2022/01/24 12:47:26;;;;;;;18.08;10.77;;;4.90;89.00;;;;;;4979731;28;20406;-75
2022/01/24 12:49:51;;;;;;;17.20;10.60;;;5.00;88.10;;;;;;4986499;28;20564;-75
2022/01/24 12:52:21;;;;;;;20.52;11.68;;;5.00;87.80;;;;;;4981573;28;20101;-75
2022/01/24 12:54:49;;;;;;;20.48;11.73;;;5.00;88.00;;;;;;4977433;28;20035;-75
2022/01/24 12:57:18;;;;;;;21.05;13.07;;;5.00;88.20;;;;;;4986754;28;20034;-75
2022/01/24 12:59:56;;;;;;;21.02;13.02;;;5.00;88.70;;;;;;4990748;28;20026;-76
2022/01/24 13:02:31;;;;;;;22.65;14.25;;;5.00;88.30;;;;;;4985890;28;20026;-75
2022/01/24 13:05:11;;;;;;;21.55;13.75;;;5.00;88.50;;;;;;4982680;28;20077;-75
2022/01/24 13:07:39;;;;;;;21.35;13.30;;;5.00;88.70;;;;;;4979276;28;20026;-75
2022/01/24 13:10:08;;;;;;;21.85;13.65;;;5.00;88.70;;;;;;4987631;28;20018;-75
2022/01/24 13:12:35;;;;;;;23.85;14.60;;;5.00;88.90;;;;;;4986387;28;20505;-75
2022/01/24 13:15:04;;;;;;;21.45;14.40;;;5.00;88.50;;;;;;4984641;28;20046;-75
2022/01/24 13:23:02;;;;;;;27.27;15.63;;;5.00;88.80;;;;;;4985034;28;20038;-75
2022/01/24 13:25:36;;;;;;;27.10;15.07;;;5.00;88.90;;;;;;4989975;28;20062;-75
2022/01/24 13:28:08;;;;;;;22.38;15.50;;;5.00;88.70;;;;;;4980255;28;20328;-75
2022/01/24 13:30:46;;;;;;;25.27;15.48;;;5.00;88.80;;;;;;4991870;28;20458;-75
2022/01/24 13:33:24;;;;;;;24.85;15.48;;;5.00;88.60;;;;;;4988595;28;20033;-75
2022/01/24 13:35:53;;;;;;;26.50;16.42;;;4.90;89.00;;;;;;4987175;28;20019;-76
2022/01/24 13:38:26;;;;;;;26.30;16.98;;;5.00;89.20;;;;;;4982240;28;20038;-75
2022/01/24 13:41:01;;;;;;;24.98;16.13;;;5.00;89.50;;;;;;4985907;28;20466;-75
2022/01/24 13:43:54;;;;;;;25.27;16.77;;;5.00;89.30;;;;;;4984475;28;20026;-76
2022/01/24 13:46:22;;;;;;;29.15;17.33;;;5.00;89.30;;;;;;4983127;28;20114;-75
2022/01/24 13:49:00;;;;;;;28.23;18.45;;;5.00;89.30;;;;;;4978977;28;20022;-75
2022/01/24 13:51:34;;;;;;;29.98;18.42;;;5.00;89.20;;;;;;4988146;28;20024;-75
2022/01/24 13:54:00;;;;;;;28.92;18.27;;;5.00;89.10;;;;;;4986761;28;20030;-76
2022/01/24 13:56:35;;;;;;;27.52;18.25;;;4.90;88.90;;;;;;4988706;28;20358;-75
2022/01/24 13:59:15;;;;;;;32.95;19.70;;;4.90;89.10;;;;;;4976871;28;20032;-75
2022/01/24 14:02:04;;;;;;;31.33;19.33;;;5.00;89.00;;;;;;4980179;28;20030;-75
2022/01/24 14:04:38;;;;;;;32.78;19.77;;;5.00;89.20;;;;;;4984867;28;20625;-74
2022/01/24 14:07:11;;;;;;;32.92;19.83;;;5.00;89.60;;;;;;4989040;28;20339;-74
2022/01/24 14:09:44;;;;;;;29.75;19.50;;;4.90;89.30;;;;;;4986539;28;20397;-75
2022/01/24 14:12:15;;;;;;;34.17;20.73;;;4.90;89.50;;;;;;4978524;28;20033;-74
2022/01/24 14:14:48;;;;;;;30.80;19.83;;;4.90;89.80;;;;;;4991683;28;20042;-75
2022/01/24 14:19:44;;;;;;;32.63;21.45;;;4.90;89.90;;;;;;4987839;28;20490;-77
2022/01/24 14:22:14;;;;;;;39.13;22.50;;;4.90;89.90;;;;;;4982479;28;20030;-76
2022/01/24 14:24:47;;;;;;;35.85;21.75;;;4.90;90.00;;;;;;4990049;28;20529;-77
2022/01/24 14:27:14;;;;;;;39.55;21.63;;;4.90;89.80;;;;;;4985053;28;20397;-78
2022/01/24 14:29:40;;;;;;;35.17;21.35;;;4.80;89.40;;;;;;4982123;28;20023;-79
2022/01/24 14:32:14;;;;;;;35.70;21.05;;;4.80;89.10;;;;;;4979587;28;20022;-78
2022/01/24 14:34:40;;;;;;;36.17;21.50;;;4.80;89.40;;;;;;4987646;28;20923;-78
2022/01/24 14:37:07;;;;;;;38.95;22.25;;;4.80;89.50;;;;;;4976813;28;20022;-78
2022/01/24 14:39:44;;;;;;;42.13;23.23;;;4.80;89.50;;;;;;4981535;28;20041;-76
2022/01/24 14:42:13;;;;;;;39.53;20.98;;;4.80;89.60;;;;;;4994453;28;20030;-76
2022/01/24 14:44:54;;;;;;;38.65;22.48;;;4.70;89.60;;;;;;4980846;28;20481;-76
2022/01/24 14:47:22;;;;;;;41.25;22.42;;;4.70;89.90;;;;;;4998989;28;20045;-77